Аэропорт: Курск-Восточный . Курск

ICAO: UUOK

METAR:
2019-07-23 18:30:00
UUOK 231830Z VRB01MPS CAVOK 20/15 Q1011 R30/CLRD65 NOSIG RMK QFE739/0986
METAR:
Информация по данной станции не доступна